sensor_id;sensor_type;location;lat;lon;timestamp;pressure;altitude;pressure_sealevel;temperature
29423;BMP180;16399;51.686;8.684;2023-08-01T00:01:37;98234.00;;;16.90
29423;BMP180;16399;51.686;8.684;2023-08-01T00:04:39;98240.00;;;16.90
29423;BMP180;16399;51.686;8.684;2023-08-01T00:07:41;98243.00;;;16.90
29423;BMP180;16399;51.686;8.684;2023-08-01T00:10:44;98230.00;;;16.90
29423;BMP180;16399;51.686;8.684;2023-08-01T00:13:46;98224.00;;;16.90
29423;BMP180;16399;51.686;8.684;2023-08-01T00:16:48;98204.00;;;16.90
29423;BMP180;16399;51.686;8.684;2023-08-01T00:19:51;98199.00;;;16.80
29423;BMP180;16399;51.686;8.684;2023-08-01T00:22:53;98189.00;;;16.70
29423;BMP180;16399;51.686;8.684;2023-08-01T00:25:55;98182.00;;;16.70
29423;BMP180;16399;51.686;8.684;2023-08-01T00:28:57;98194.00;;;16.70
29423;BMP180;16399;51.686;8.684;2023-08-01T00:32:00;98185.00;;;16.70
29423;BMP180;16399;51.686;8.684;2023-08-01T00:35:03;98184.00;;;16.60
29423;BMP180;16399;51.686;8.684;2023-08-01T00:38:05;98197.00;;;16.60
29423;BMP180;16399;51.686;8.684;2023-08-01T00:41:07;98186.00;;;16.70
29423;BMP180;16399;51.686;8.684;2023-08-01T00:44:10;98173.00;;;16.60
29423;BMP180;16399;51.686;8.684;2023-08-01T00:47:12;98167.00;;;16.60
29423;BMP180;16399;51.686;8.684;2023-08-01T00:50:14;98168.00;;;16.60
29423;BMP180;16399;51.686;8.684;2023-08-01T00:53:17;98168.00;;;16.60
29423;BMP180;16399;51.686;8.684;2023-08-01T00:56:20;98175.00;;;16.60
29423;BMP180;16399;51.686;8.684;2023-08-01T00:59:22;98158.00;;;16.60
29423;BMP180;16399;51.686;8.684;2023-08-01T01:02:24;98151.00;;;16.60
29423;BMP180;16399;51.686;8.684;2023-08-01T01:05:30;98182.00;;;16.50
29423;BMP180;16399;51.686;8.684;2023-08-01T01:08:31;98156.00;;;16.50
29423;BMP180;16399;51.686;8.684;2023-08-01T01:11:33;98150.00;;;16.50
29423;BMP180;16399;51.686;8.684;2023-08-01T01:14:36;98134.00;;;16.50
29423;BMP180;16399;51.686;8.684;2023-08-01T01:17:38;98137.00;;;16.50
29423;BMP180;16399;51.686;8.684;2023-08-01T01:20:40;98129.00;;;16.50
29423;BMP180;16399;51.686;8.684;2023-08-01T01:23:43;98119.00;;;16.50
29423;BMP180;16399;51.686;8.684;2023-08-01T01:26:46;98122.00;;;16.60
29423;BMP180;16399;51.686;8.684;2023-08-01T01:29:50;98143.00;;;16.50
29423;BMP180;16399;51.686;8.684;2023-08-01T01:32:52;98129.00;;;16.50
29423;BMP180;16399;51.686;8.684;2023-08-01T01:35:55;98143.00;;;16.50
29423;BMP180;16399;51.686;8.684;2023-08-01T01:38:57;98123.00;;;16.40
29423;BMP180;16399;51.686;8.684;2023-08-01T01:42:00;98097.00;;;16.40
29423;BMP180;16399;51.686;8.684;2023-08-01T01:45:02;98127.00;;;16.30
29423;BMP180;16399;51.686;8.684;2023-08-01T01:48:05;98120.00;;;16.30
29423;BMP180;16399;51.686;8.684;2023-08-01T01:51:07;98127.00;;;16.20
29423;BMP180;16399;51.686;8.684;2023-08-01T01:57:13;98098.00;;;16.10
29423;BMP180;16399;51.686;8.684;2023-08-01T02:00:15;98102.00;;;16.00
29423;BMP180;16399;51.686;8.684;2023-08-01T02:03:17;98085.00;;;16.00
29423;BMP180;16399;51.686;8.684;2023-08-01T02:06:19;98078.00;;;16.00
29423;BMP180;16399;51.686;8.684;2023-08-01T02:09:22;98075.00;;;16.00
29423;BMP180;16399;51.686;8.684;2023-08-01T02:12:24;98062.00;;;16.00
29423;BMP180;16399;51.686;8.684;2023-08-01T02:15:26;98066.00;;;15.90
29423;BMP180;16399;51.686;8.684;2023-08-01T02:18:29;98061.00;;;15.90
29423;BMP180;16399;51.686;8.684;2023-08-01T02:21:31;98062.00;;;15.90
29423;BMP180;16399;51.686;8.684;2023-08-01T02:24:33;98052.00;;;15.90
29423;BMP180;16399;51.686;8.684;2023-08-01T02:27:35;98058.00;;;15.80
29423;BMP180;16399;51.686;8.684;2023-08-01T02:30:38;98062.00;;;15.80
29423;BMP180;16399;51.686;8.684;2023-08-01T02:33:40;98056.00;;;15.80
29423;BMP180;16399;51.686;8.684;2023-08-01T02:36:42;98065.00;;;15.80
29423;BMP180;16399;51.686;8.684;2023-08-01T02:39:45;98064.00;;;15.80
29423;BMP180;16399;51.686;8.684;2023-08-01T02:42:47;98048.00;;;15.80
29423;BMP180;16399;51.686;8.684;2023-08-01T02:45:49;98040.00;;;15.80
29423;BMP180;16399;51.686;8.684;2023-08-01T02:48:52;98036.00;;;15.80
29423;BMP180;16399;51.686;8.684;2023-08-01T02:51:54;98034.00;;;15.80
29423;BMP180;16399;51.686;8.684;2023-08-01T02:54:56;98043.00;;;15.80
29423;BMP180;16399;51.686;8.684;2023-08-01T02:57:59;98043.00;;;15.80
29423;BMP180;16399;51.686;8.684;2023-08-01T03:01:06;98033.00;;;15.80
29423;BMP180;16399;51.686;8.684;2023-08-01T03:04:06;98034.00;;;15.80
29423;BMP180;16399;51.686;8.684;2023-08-01T03:07:09;98035.00;;;15.80
29423;BMP180;16399;51.686;8.684;2023-08-01T03:10:11;98038.00;;;15.80
29423;BMP180;16399;51.686;8.684;2023-08-01T03:13:13;98038.00;;;15.80
29423;BMP180;16399;51.686;8.684;2023-08-01T03:16:16;98058.00;;;15.80
29423;BMP180;16399;51.686;8.684;2023-08-01T03:19:18;98067.00;;;15.80
29423;BMP180;16399;51.686;8.684;2023-08-01T03:22:20;98055.00;;;15.80
29423;BMP180;16399;51.686;8.684;2023-08-01T03:25:23;98049.00;;;15.70
29423;BMP180;16399;51.686;8.684;2023-08-01T03:28:26;98056.00;;;15.70
29423;BMP180;16399;51.686;8.684;2023-08-01T03:31:29;98064.00;;;15.70
29423;BMP180;16399;51.686;8.684;2023-08-01T03:34:31;98060.00;;;15.70
29423;BMP180;16399;51.686;8.684;2023-08-01T03:37:33;98052.00;;;15.70
29423;BMP180;16399;51.686;8.684;2023-08-01T03:40:36;98054.00;;;15.60
29423;BMP180;16399;51.686;8.684;2023-08-01T03:43:38;98051.00;;;15.60
29423;BMP180;16399;51.686;8.684;2023-08-01T03:46:40;98054.00;;;15.60
29423;BMP180;16399;51.686;8.684;2023-08-01T03:49:43;98037.00;;;15.50
29423;BMP180;16399;51.686;8.684;2023-08-01T03:52:45;98043.00;;;15.50
29423;BMP180;16399;51.686;8.684;2023-08-01T03:55:48;98040.00;;;15.50
29423;BMP180;16399;51.686;8.684;2023-08-01T03:58:50;98039.00;;;15.50
29423;BMP180;16399;51.686;8.684;2023-08-01T04:01:52;98047.00;;;15.50
29423;BMP180;16399;51.686;8.684;2023-08-01T04:04:55;98039.00;;;15.50
29423;BMP180;16399;51.686;8.684;2023-08-01T04:07:57;98033.00;;;15.50
29423;BMP180;16399;51.686;8.684;2023-08-01T04:10:59;98038.00;;;15.50
29423;BMP180;16399;51.686;8.684;2023-08-01T04:14:02;98031.00;;;15.50
29423;BMP180;16399;51.686;8.684;2023-08-01T04:17:04;98041.00;;;15.40
29423;BMP180;16399;51.686;8.684;2023-08-01T04:20:07;98035.00;;;15.40
29423;BMP180;16399;51.686;8.684;2023-08-01T04:23:09;98042.00;;;15.40
29423;BMP180;16399;51.686;8.684;2023-08-01T04:26:12;98039.00;;;15.40
29423;BMP180;16399;51.686;8.684;2023-08-01T04:29:14;98034.00;;;15.40
29423;BMP180;16399;51.686;8.684;2023-08-01T04:32:18;98042.00;;;15.40
29423;BMP180;16399;51.686;8.684;2023-08-01T04:35:20;98044.00;;;15.40
29423;BMP180;16399;51.686;8.684;2023-08-01T04:38:22;98037.00;;;15.40
29423;BMP180;16399;51.686;8.684;2023-08-01T04:41:25;98052.00;;;15.40
29423;BMP180;16399;51.686;8.684;2023-08-01T04:44:27;98040.00;;;15.30
29423;BMP180;16399;51.686;8.684;2023-08-01T04:47:30;98045.00;;;15.30
29423;BMP180;16399;51.686;8.684;2023-08-01T04:50:33;98047.00;;;15.30
29423;BMP180;16399;51.686;8.684;2023-08-01T04:53:35;98046.00;;;15.30
29423;BMP180;16399;51.686;8.684;2023-08-01T04:56:37;98042.00;;;15.30
29423;BMP180;16399;51.686;8.684;2023-08-01T04:59:40;98046.00;;;15.30
29423;BMP180;16399;51.686;8.684;2023-08-01T05:02:42;98054.00;;;15.30
29423;BMP180;16399;51.686;8.684;2023-08-01T05:05:44;98054.00;;;15.30
29423;BMP180;16399;51.686;8.684;2023-08-01T05:08:46;98059.00;;;15.40
29423;BMP180;16399;51.686;8.684;2023-08-01T05:11:49;98067.00;;;15.30
29423;BMP180;16399;51.686;8.684;2023-08-01T05:14:51;98058.00;;;15.30
29423;BMP180;16399;51.686;8.684;2023-08-01T05:17:53;98066.00;;;15.30
29423;BMP180;16399;51.686;8.684;2023-08-01T05:20:57;98072.00;;;15.30
29423;BMP180;16399;51.686;8.684;2023-08-01T05:23:59;98078.00;;;15.30
29423;BMP180;16399;51.686;8.684;2023-08-01T05:27:01;98077.00;;;15.30
29423;BMP180;16399;51.686;8.684;2023-08-01T05:30:04;98079.00;;;15.40
29423;BMP180;16399;51.686;8.684;2023-08-01T05:33:06;98082.00;;;15.40
29423;BMP180;16399;51.686;8.684;2023-08-01T05:36:08;98085.00;;;15.40
29423;BMP180;16399;51.686;8.684;2023-08-01T05:39:11;98091.00;;;15.40
29423;BMP180;16399;51.686;8.684;2023-08-01T05:42:13;98086.00;;;15.50
29423;BMP180;16399;51.686;8.684;2023-08-01T05:45:15;98087.00;;;15.40
29423;BMP180;16399;51.686;8.684;2023-08-01T05:48:17;98082.00;;;15.50
29423;BMP180;16399;51.686;8.684;2023-08-01T05:51:20;98087.00;;;15.50
29423;BMP180;16399;51.686;8.684;2023-08-01T05:54:22;98091.00;;;15.50
29423;BMP180;16399;51.686;8.684;2023-08-01T05:57:24;98091.00;;;15.50
29423;BMP180;16399;51.686;8.684;2023-08-01T06:00:27;98101.00;;;15.50
29423;BMP180;16399;51.686;8.684;2023-08-01T06:03:29;98095.00;;;15.50
29423;BMP180;16399;51.686;8.684;2023-08-01T06:06:31;98096.00;;;15.40
29423;BMP180;16399;51.686;8.684;2023-08-01T06:09:34;98113.00;;;15.40
29423;BMP180;16399;51.686;8.684;2023-08-01T06:12:36;98118.00;;;15.40
29423;BMP180;16399;51.686;8.684;2023-08-01T06:15:38;98120.00;;;15.40
29423;BMP180;16399;51.686;8.684;2023-08-01T06:18:41;98119.00;;;15.40
29423;BMP180;16399;51.686;8.684;2023-08-01T06:21:43;98129.00;;;15.40
29423;BMP180;16399;51.686;8.684;2023-08-01T06:24:45;98133.00;;;15.40
29423;BMP180;16399;51.686;8.684;2023-08-01T06:27:48;98128.00;;;15.40
29423;BMP180;16399;51.686;8.684;2023-08-01T06:30:50;98133.00;;;15.40
29423;BMP180;16399;51.686;8.684;2023-08-01T06:33:52;98140.00;;;15.30
29423;BMP180;16399;51.686;8.684;2023-08-01T06:36:54;98144.00;;;15.30
29423;BMP180;16399;51.686;8.684;2023-08-01T06:39:58;98146.00;;;15.20
29423;BMP180;16399;51.686;8.684;2023-08-01T06:43:00;98148.00;;;15.20
29423;BMP180;16399;51.686;8.684;2023-08-01T06:46:03;98148.00;;;15.20
29423;BMP180;16399;51.686;8.684;2023-08-01T06:49:05;98150.00;;;15.20
29423;BMP180;16399;51.686;8.684;2023-08-01T06:52:07;98153.00;;;15.20
29423;BMP180;16399;51.686;8.684;2023-08-01T06:55:10;98158.00;;;15.20
29423;BMP180;16399;51.686;8.684;2023-08-01T06:58:12;98160.00;;;15.20
29423;BMP180;16399;51.686;8.684;2023-08-01T07:01:14;98149.00;;;15.20
29423;BMP180;16399;51.686;8.684;2023-08-01T07:04:17;98151.00;;;15.20
29423;BMP180;16399;51.686;8.684;2023-08-01T07:07:19;98153.00;;;15.30
29423;BMP180;16399;51.686;8.684;2023-08-01T07:10:21;98163.00;;;15.30
29423;BMP180;16399;51.686;8.684;2023-08-01T07:13:24;98172.00;;;15.30
29423;BMP180;16399;51.686;8.684;2023-08-01T07:16:26;98166.00;;;15.30
29423;BMP180;16399;51.686;8.684;2023-08-01T07:19:28;98172.00;;;15.30
29423;BMP180;16399;51.686;8.684;2023-08-01T07:22:31;98166.00;;;15.30
29423;BMP180;16399;51.686;8.684;2023-08-01T07:25:33;98174.00;;;15.40
29423;BMP180;16399;51.686;8.684;2023-08-01T07:28:35;98169.00;;;15.40
29423;BMP180;16399;51.686;8.684;2023-08-01T07:31:38;98161.00;;;15.50
29423;BMP180;16399;51.686;8.684;2023-08-01T07:34:41;98174.00;;;15.60
29423;BMP180;16399;51.686;8.684;2023-08-01T07:37:44;98176.00;;;15.70
29423;BMP180;16399;51.686;8.684;2023-08-01T07:40:46;98161.00;;;15.70
29423;BMP180;16399;51.686;8.684;2023-08-01T07:43:48;98172.00;;;15.80
29423;BMP180;16399;51.686;8.684;2023-08-01T07:46:50;98180.00;;;15.80
29423;BMP180;16399;51.686;8.684;2023-08-01T07:49:53;98179.00;;;15.80
29423;BMP180;16399;51.686;8.684;2023-08-01T07:52:55;98167.00;;;15.90
29423;BMP180;16399;51.686;8.684;2023-08-01T07:55:58;98169.00;;;15.80
29423;BMP180;16399;51.686;8.684;2023-08-01T07:59:02;98179.00;;;15.90
29423;BMP180;16399;51.686;8.684;2023-08-01T08:02:05;98179.00;;;16.00
29423;BMP180;16399;51.686;8.684;2023-08-01T08:05:07;98182.00;;;16.00
29423;BMP180;16399;51.686;8.684;2023-08-01T08:08:10;98168.00;;;16.00
29423;BMP180;16399;51.686;8.684;2023-08-01T08:11:12;98182.00;;;16.00
29423;BMP180;16399;51.686;8.684;2023-08-01T08:14:14;98175.00;;;16.20
29423;BMP180;16399;51.686;8.684;2023-08-01T08:17:18;98174.00;;;16.30
29423;BMP180;16399;51.686;8.684;2023-08-01T08:20:20;98177.00;;;16.20
29423;BMP180;16399;51.686;8.684;2023-08-01T08:23:22;98171.00;;;16.20
29423;BMP180;16399;51.686;8.684;2023-08-01T08:26:25;98180.00;;;16.10
29423;BMP180;16399;51.686;8.684;2023-08-01T08:29:27;98175.00;;;16.10
29423;BMP180;16399;51.686;8.684;2023-08-01T08:32:30;98176.00;;;16.10
29423;BMP180;16399;51.686;8.684;2023-08-01T08:35:35;98174.00;;;16.10
29423;BMP180;16399;51.686;8.684;2023-08-01T08:38:37;98182.00;;;16.10
29423;BMP180;16399;51.686;8.684;2023-08-01T08:41:45;98193.00;;;16.00
29423;BMP180;16399;51.686;8.684;2023-08-01T08:44:47;98195.00;;;16.00
29423;BMP180;16399;51.686;8.684;2023-08-01T08:47:55;98190.00;;;15.90
29423;BMP180;16399;51.686;8.684;2023-08-01T08:50:59;98196.00;;;15.80
29423;BMP180;16399;51.686;8.684;2023-08-01T08:54:02;98193.00;;;15.80
29423;BMP180;16399;51.686;8.684;2023-08-01T08:57:06;98199.00;;;15.80
29423;BMP180;16399;51.686;8.684;2023-08-01T09:00:08;98197.00;;;15.80
29423;BMP180;16399;51.686;8.684;2023-08-01T09:03:11;98189.00;;;15.90
29423;BMP180;16399;51.686;8.684;2023-08-01T09:06:18;98178.00;;;16.10
29423;BMP180;16399;51.686;8.684;2023-08-01T09:09:21;98181.00;;;16.30
29423;BMP180;16399;51.686;8.684;2023-08-01T09:12:25;98184.00;;;16.40
29423;BMP180;16399;51.686;8.684;2023-08-01T09:15:28;98178.00;;;16.50
29423;BMP180;16399;51.686;8.684;2023-08-01T09:18:30;98171.00;;;16.80
29423;BMP180;16399;51.686;8.684;2023-08-01T09:21:33;98180.00;;;17.00
29423;BMP180;16399;51.686;8.684;2023-08-01T09:24:36;98181.00;;;17.00
29423;BMP180;16399;51.686;8.684;2023-08-01T09:27:38;98180.00;;;17.10
29423;BMP180;16399;51.686;8.684;2023-08-01T09:30:53;98182.00;;;17.20
29423;BMP180;16399;51.686;8.684;2023-08-01T09:33:51;98182.00;;;17.30
29423;BMP180;16399;51.686;8.684;2023-08-01T09:37:00;98178.00;;;17.20
29423;BMP180;16399;51.686;8.684;2023-08-01T09:40:02;98179.00;;;17.00
29423;BMP180;16399;51.686;8.684;2023-08-01T09:43:06;98186.00;;;17.10
29423;BMP180;16399;51.686;8.684;2023-08-01T09:46:08;98189.00;;;17.10
29423;BMP180;16399;51.686;8.684;2023-08-01T09:49:11;98192.00;;;17.00
29423;BMP180;16399;51.686;8.684;2023-08-01T09:52:14;98177.00;;;16.80
29423;BMP180;16399;51.686;8.684;2023-08-01T09:55:16;98180.00;;;17.00
29423;BMP180;16399;51.686;8.684;2023-08-01T09:58:20;98178.00;;;17.20
29423;BMP180;16399;51.686;8.684;2023-08-01T10:01:24;98195.00;;;17.20
29423;BMP180;16399;51.686;8.684;2023-08-01T10:04:31;98189.00;;;17.00
29423;BMP180;16399;51.686;8.684;2023-08-01T10:07:35;98192.00;;;16.90
29423;BMP180;16399;51.686;8.684;2023-08-01T10:10:40;98180.00;;;16.90
29423;BMP180;16399;51.686;8.684;2023-08-01T10:13:43;98186.00;;;17.00
29423;BMP180;16399;51.686;8.684;2023-08-01T10:16:46;98183.00;;;17.10
29423;BMP180;16399;51.686;8.684;2023-08-01T10:19:49;98184.00;;;17.20
29423;BMP180;16399;51.686;8.684;2023-08-01T10:22:53;98181.00;;;17.40
29423;BMP180;16399;51.686;8.684;2023-08-01T10:25:55;98189.00;;;17.60
29423;BMP180;16399;51.686;8.684;2023-08-01T10:28:58;98192.00;;;17.60
29423;BMP180;16399;51.686;8.684;2023-08-01T10:32:02;98187.00;;;17.80
29423;BMP180;16399;51.686;8.684;2023-08-01T10:35:05;98184.00;;;18.00
29423;BMP180;16399;51.686;8.684;2023-08-01T10:38:14;98181.00;;;18.20
29423;BMP180;16399;51.686;8.684;2023-08-01T10:41:27;98190.00;;;18.50
29423;BMP180;16399;51.686;8.684;2023-08-01T10:44:29;98186.00;;;18.50
29423;BMP180;16399;51.686;8.684;2023-08-01T10:47:32;98184.00;;;18.50
29423;BMP180;16399;51.686;8.684;2023-08-01T10:50:35;98180.00;;;18.30
29423;BMP180;16399;51.686;8.684;2023-08-01T10:53:41;98176.00;;;18.10
29423;BMP180;16399;51.686;8.684;2023-08-01T10:56:45;98176.00;;;18.10
29423;BMP180;16399;51.686;8.684;2023-08-01T10:59:47;98176.00;;;18.20
29423;BMP180;16399;51.686;8.684;2023-08-01T11:02:50;98173.00;;;18.30
29423;BMP180;16399;51.686;8.684;2023-08-01T11:05:58;98178.00;;;18.50
29423;BMP180;16399;51.686;8.684;2023-08-01T11:09:01;98176.00;;;18.70
29423;BMP180;16399;51.686;8.684;2023-08-01T11:12:04;98179.00;;;18.90
29423;BMP180;16399;51.686;8.684;2023-08-01T11:15:08;98169.00;;;19.10
29423;BMP180;16399;51.686;8.684;2023-08-01T11:18:11;98190.00;;;19.20
29423;BMP180;16399;51.686;8.684;2023-08-01T11:21:24;98185.00;;;19.20
29423;BMP180;16399;51.686;8.684;2023-08-01T11:24:19;98188.00;;;19.10
29423;BMP180;16399;51.686;8.684;2023-08-01T11:27:22;98197.00;;;19.10
29423;BMP180;16399;51.686;8.684;2023-08-01T11:30:34;98197.00;;;19.00
29423;BMP180;16399;51.686;8.684;2023-08-01T11:33:29;98198.00;;;18.90
29423;BMP180;16399;51.686;8.684;2023-08-01T11:36:32;98215.00;;;18.70
29423;BMP180;16399;51.686;8.684;2023-08-01T11:39:35;98217.00;;;18.50
29423;BMP180;16399;51.686;8.684;2023-08-01T11:42:38;98211.00;;;18.30
29423;BMP180;16399;51.686;8.684;2023-08-01T11:45:48;98218.00;;;18.20
29423;BMP180;16399;51.686;8.684;2023-08-01T11:48:51;98222.00;;;18.20
29423;BMP180;16399;51.686;8.684;2023-08-01T11:51:53;98224.00;;;18.20
29423;BMP180;16399;51.686;8.684;2023-08-01T11:54:56;98222.00;;;18.10
29423;BMP180;16399;51.686;8.684;2023-08-01T11:57:58;98224.00;;;18.10
29423;BMP180;16399;51.686;8.684;2023-08-01T12:01:09;98228.00;;;18.10
29423;BMP180;16399;51.686;8.684;2023-08-01T12:04:12;98250.00;;;18.10
29423;BMP180;16399;51.686;8.684;2023-08-01T12:07:15;98257.00;;;18.00
29423;BMP180;16399;51.686;8.684;2023-08-01T12:10:18;98267.00;;;17.90
29423;BMP180;16399;51.686;8.684;2023-08-01T12:13:22;98263.00;;;17.90
29423;BMP180;16399;51.686;8.684;2023-08-01T12:16:25;98260.00;;;18.10
29423;BMP180;16399;51.686;8.684;2023-08-01T12:19:27;98270.00;;;18.20
29423;BMP180;16399;51.686;8.684;2023-08-01T12:22:29;98265.00;;;18.30
29423;BMP180;16399;51.686;8.684;2023-08-01T12:25:32;98283.00;;;18.30
29423;BMP180;16399;51.686;8.684;2023-08-01T12:28:34;98288.00;;;18.30
29423;BMP180;16399;51.686;8.684;2023-08-01T12:31:37;98279.00;;;18.20
29423;BMP180;16399;51.686;8.684;2023-08-01T12:34:39;98285.00;;;18.00
29423;BMP180;16399;51.686;8.684;2023-08-01T12:37:41;98287.00;;;18.00
29423;BMP180;16399;51.686;8.684;2023-08-01T12:40:43;98286.00;;;18.00
29423;BMP180;16399;51.686;8.684;2023-08-01T12:43:46;98293.00;;;18.00
29423;BMP180;16399;51.686;8.684;2023-08-01T12:46:48;98306.00;;;18.10
29423;BMP180;16399;51.686;8.684;2023-08-01T12:49:50;98302.00;;;18.10
29423;BMP180;16399;51.686;8.684;2023-08-01T12:52:53;98309.00;;;18.10
29423;BMP180;16399;51.686;8.684;2023-08-01T12:55:55;98319.00;;;18.20
29423;BMP180;16399;51.686;8.684;2023-08-01T12:58:57;98317.00;;;18.20
29423;BMP180;16399;51.686;8.684;2023-08-01T13:01:59;98314.00;;;18.20
29423;BMP180;16399;51.686;8.684;2023-08-01T13:05:02;98316.00;;;18.20
29423;BMP180;16399;51.686;8.684;2023-08-01T13:08:05;98321.00;;;18.20
29423;BMP180;16399;51.686;8.684;2023-08-01T13:11:14;98304.00;;;18.10
29423;BMP180;16399;51.686;8.684;2023-08-01T13:14:17;98309.00;;;18.40
29423;BMP180;16399;51.686;8.684;2023-08-01T13:17:19;98310.00;;;18.60
29423;BMP180;16399;51.686;8.684;2023-08-01T13:20:22;98308.00;;;18.70
29423;BMP180;16399;51.686;8.684;2023-08-01T13:23:25;98302.00;;;18.80
29423;BMP180;16399;51.686;8.684;2023-08-01T13:26:27;98311.00;;;19.00
29423;BMP180;16399;51.686;8.684;2023-08-01T13:29:29;98297.00;;;19.20
29423;BMP180;16399;51.686;8.684;2023-08-01T13:32:32;98305.00;;;19.30
29423;BMP180;16399;51.686;8.684;2023-08-01T13:35:34;98300.00;;;19.40
29423;BMP180;16399;51.686;8.684;2023-08-01T13:38:36;98291.00;;;19.50
29423;BMP180;16399;51.686;8.684;2023-08-01T13:41:39;98287.00;;;19.50
29423;BMP180;16399;51.686;8.684;2023-08-01T13:44:41;98298.00;;;19.60
29423;BMP180;16399;51.686;8.684;2023-08-01T13:47:43;98290.00;;;19.70
29423;BMP180;16399;51.686;8.684;2023-08-01T13:50:46;98298.00;;;19.80
29423;BMP180;16399;51.686;8.684;2023-08-01T13:53:48;98287.00;;;19.90
29423;BMP180;16399;51.686;8.684;2023-08-01T13:56:51;98299.00;;;20.10
29423;BMP180;16399;51.686;8.684;2023-08-01T13:59:54;98306.00;;;20.00
29423;BMP180;16399;51.686;8.684;2023-08-01T14:02:56;98298.00;;;20.00
29423;BMP180;16399;51.686;8.684;2023-08-01T14:06:06;98316.00;;;20.10
29423;BMP180;16399;51.686;8.684;2023-08-01T14:09:09;98302.00;;;20.10
29423;BMP180;16399;51.686;8.684;2023-08-01T14:12:11;98302.00;;;20.10
29423;BMP180;16399;51.686;8.684;2023-08-01T14:15:13;98310.00;;;20.10
29423;BMP180;16399;51.686;8.684;2023-08-01T14:18:16;98311.00;;;20.10
29423;BMP180;16399;51.686;8.684;2023-08-01T14:21:18;98308.00;;;20.10
29423;BMP180;16399;51.686;8.684;2023-08-01T14:24:20;98318.00;;;20.30
29423;BMP180;16399;51.686;8.684;2023-08-01T14:27:23;98307.00;;;20.40
29423;BMP180;16399;51.686;8.684;2023-08-01T14:30:25;98308.00;;;20.50
29423;BMP180;16399;51.686;8.684;2023-08-01T14:33:27;98308.00;;;20.30
29423;BMP180;16399;51.686;8.684;2023-08-01T14:36:29;98302.00;;;20.40
29423;BMP180;16399;51.686;8.684;2023-08-01T14:39:32;98319.00;;;20.50
29423;BMP180;16399;51.686;8.684;2023-08-01T14:42:34;98327.00;;;20.50
29423;BMP180;16399;51.686;8.684;2023-08-01T14:45:42;98329.00;;;20.50
29423;BMP180;16399;51.686;8.684;2023-08-01T14:48:45;98328.00;;;20.60
29423;BMP180;16399;51.686;8.684;2023-08-01T14:51:48;98331.00;;;20.70
29423;BMP180;16399;51.686;8.684;2023-08-01T14:54:53;98318.00;;;20.70
29423;BMP180;16399;51.686;8.684;2023-08-01T14:57:55;98330.00;;;20.80
29423;BMP180;16399;51.686;8.684;2023-08-01T15:00:58;98334.00;;;20.70
29423;BMP180;16399;51.686;8.684;2023-08-01T15:04:00;98329.00;;;20.70
29423;BMP180;16399;51.686;8.684;2023-08-01T15:07:02;98329.00;;;20.70
29423;BMP180;16399;51.686;8.684;2023-08-01T15:10:05;98335.00;;;20.70
29423;BMP180;16399;51.686;8.684;2023-08-01T15:13:07;98323.00;;;20.80
29423;BMP180;16399;51.686;8.684;2023-08-01T15:16:10;98329.00;;;20.70
29423;BMP180;16399;51.686;8.684;2023-08-01T15:19:13;98332.00;;;20.80
29423;BMP180;16399;51.686;8.684;2023-08-01T15:22:17;98336.00;;;20.80
29423;BMP180;16399;51.686;8.684;2023-08-01T15:25:19;98342.00;;;20.80
29423;BMP180;16399;51.686;8.684;2023-08-01T15:28:22;98338.00;;;20.80
29423;BMP180;16399;51.686;8.684;2023-08-01T15:31:25;98342.00;;;20.70
29423;BMP180;16399;51.686;8.684;2023-08-01T15:34:29;98335.00;;;20.50
29423;BMP180;16399;51.686;8.684;2023-08-01T15:37:31;98351.00;;;20.50
29423;BMP180;16399;51.686;8.684;2023-08-01T15:40:34;98351.00;;;20.40
29423;BMP180;16399;51.686;8.684;2023-08-01T15:43:38;98350.00;;;20.30
29423;BMP180;16399;51.686;8.684;2023-08-01T15:46:41;98338.00;;;20.30
29423;BMP180;16399;51.686;8.684;2023-08-01T15:49:43;98341.00;;;20.30
29423;BMP180;16399;51.686;8.684;2023-08-01T15:52:46;98333.00;;;20.20
29423;BMP180;16399;51.686;8.684;2023-08-01T15:55:59;98353.00;;;20.10
29423;BMP180;16399;51.686;8.684;2023-08-01T15:59:01;98357.00;;;20.00
29423;BMP180;16399;51.686;8.684;2023-08-01T16:02:04;98342.00;;;20.00
29423;BMP180;16399;51.686;8.684;2023-08-01T16:05:07;98344.00;;;20.10
29423;BMP180;16399;51.686;8.684;2023-08-01T16:08:09;98352.00;;;20.20
29423;BMP180;16399;51.686;8.684;2023-08-01T16:11:14;98353.00;;;20.20
29423;BMP180;16399;51.686;8.684;2023-08-01T16:14:16;98362.00;;;20.30
29423;BMP180;16399;51.686;8.684;2023-08-01T16:17:19;98361.00;;;20.50
29423;BMP180;16399;51.686;8.684;2023-08-01T16:20:21;98354.00;;;20.60
29423;BMP180;16399;51.686;8.684;2023-08-01T16:23:23;98362.00;;;20.70
29423;BMP180;16399;51.686;8.684;2023-08-01T16:26:26;98354.00;;;20.70
29423;BMP180;16399;51.686;8.684;2023-08-01T16:29:28;98364.00;;;20.70
29423;BMP180;16399;51.686;8.684;2023-08-01T16:32:30;98363.00;;;20.70
29423;BMP180;16399;51.686;8.684;2023-08-01T16:35:33;98362.00;;;20.60
29423;BMP180;16399;51.686;8.684;2023-08-01T16:38:35;98361.00;;;20.60
29423;BMP180;16399;51.686;8.684;2023-08-01T16:41:38;98367.00;;;20.50
29423;BMP180;16399;51.686;8.684;2023-08-01T16:44:40;98368.00;;;20.50
29423;BMP180;16399;51.686;8.684;2023-08-01T16:47:42;98376.00;;;20.40
29423;BMP180;16399;51.686;8.684;2023-08-01T16:50:44;98371.00;;;20.30
29423;BMP180;16399;51.686;8.684;2023-08-01T16:53:47;98374.00;;;20.20
29423;BMP180;16399;51.686;8.684;2023-08-01T16:56:49;98376.00;;;20.20
29423;BMP180;16399;51.686;8.684;2023-08-01T16:59:51;98382.00;;;20.10
29423;BMP180;16399;51.686;8.684;2023-08-01T17:02:54;98378.00;;;20.10
29423;BMP180;16399;51.686;8.684;2023-08-01T17:05:56;98378.00;;;20.10
29423;BMP180;16399;51.686;8.684;2023-08-01T17:08:59;98374.00;;;20.10
29423;BMP180;16399;51.686;8.684;2023-08-01T17:12:02;98379.00;;;20.20
29423;BMP180;16399;51.686;8.684;2023-08-01T17:15:04;98382.00;;;20.20
29423;BMP180;16399;51.686;8.684;2023-08-01T17:18:07;98386.00;;;20.20
29423;BMP180;16399;51.686;8.684;2023-08-01T17:21:09;98395.00;;;20.10
29423;BMP180;16399;51.686;8.684;2023-08-01T17:24:11;98406.00;;;20.10
29423;BMP180;16399;51.686;8.684;2023-08-01T17:27:14;98400.00;;;19.90
29423;BMP180;16399;51.686;8.684;2023-08-01T17:30:16;98402.00;;;19.90
29423;BMP180;16399;51.686;8.684;2023-08-01T17:33:18;98412.00;;;19.80
29423;BMP180;16399;51.686;8.684;2023-08-01T17:36:21;98421.00;;;19.70